Terminal Aerodrome Forecast
Issued by NWS Shreveport, LA

Home | Current Version | Previous Version | Text Only | Print | Product List | Glossary On
Versions: 1 2 3 4 5 6 7 8 9 10 11 12 13 14
160
FTUS44 KSHV 221750
TAFLFK
TAF
KLFK 221750Z 2218/2318 VRB03KT P6SM SKC
     FM222000 VRB04KT P6SM SCT045 SCT250
     FM230000 VRB03KT P6SM SKC=

USA.gov is the U.S. government's official web portal to all federal, state and local government web resources and services.